地図

経路データ

SID SEASON NUMBER BASIN SUBBASIN NAME ISO_TIME NATURE LAT LON WMO_WIND WMO_PRES WMO_AGENCY TRACK_TYPE DIST2LAND LANDFALL IFLAG USA_AGENCY USA_ATCF_ID USA_LAT USA_LON USA_RECORD USA_STATUS USA_WIND USA_PRES USA_SSHS USA_R34_NE USA_R34_SE USA_R34_SW USA_R34_NW USA_R50_NE USA_R50_SE USA_R50_SW USA_R50_NW USA_R64_NE USA_R64_SE USA_R64_SW USA_R64_NW USA_POCI USA_ROCI USA_RMW USA_EYE TOKYO_LAT TOKYO_LON TOKYO_GRADE TOKYO_WIND TOKYO_PRES TOKYO_R50_DIR TOKYO_R50_LONG TOKYO_R50_SHORT TOKYO_R30_DIR TOKYO_R30_LONG TOKYO_R30_SHORT TOKYO_LAND CMA_LAT CMA_LON CMA_CAT CMA_WIND CMA_PRES HKO_LAT HKO_LON HKO_CAT HKO_WIND HKO_PRES NEWDELHI_LAT NEWDELHI_LON NEWDELHI_GRADE NEWDELHI_WIND NEWDELHI_PRES NEWDELHI_CI NEWDELHI_DP NEWDELHI_POCI REUNION_LAT REUNION_LON REUNION_TYPE REUNION_WIND REUNION_PRES REUNION_TNUM REUNION_CI REUNION_RMW REUNION_R34_NE REUNION_R34_SE REUNION_R34_SW REUNION_R34_NW REUNION_R50_NE REUNION_R50_SE REUNION_R50_SW REUNION_R50_NW REUNION_R64_NE REUNION_R64_SE REUNION_R64_SW REUNION_R64_NW BOM_LAT BOM_LON BOM_TYPE BOM_WIND BOM_PRES BOM_TNUM BOM_CI BOM_RMW BOM_R34_NE BOM_R34_SE BOM_R34_SW BOM_R34_NW BOM_R50_NE BOM_R50_SE BOM_R50_SW BOM_R50_NW BOM_R64_NE BOM_R64_SE BOM_R64_SW BOM_R64_NW BOM_ROCI BOM_POCI BOM_EYE BOM_POS_METHOD BOM_PRES_METHOD NADI_LAT NADI_LON NADI_CAT NADI_WIND NADI_PRES WELLINGTON_LAT WELLINGTON_LON WELLINGTON_WIND WELLINGTON_PRES DS824_LAT DS824_LON DS824_STAGE DS824_WIND DS824_PRES TD9636_LAT TD9636_LON TD9636_STAGE TD9636_WIND TD9636_PRES TD9635_LAT TD9635_LON TD9635_WIND TD9635_PRES TD9635_ROCI NEUMANN_LAT NEUMANN_LON NEUMANN_CLASS NEUMANN_WIND NEUMANN_PRES MLC_LAT MLC_LON MLC_CLASS MLC_WIND MLC_PRES USA_GUST BOM_GUST BOM_GUST_PER REUNION_GUST REUNION_GUST_PER USA_SEAHGT USA_SEARAD_NE USA_SEARAD_SE USA_SEARAD_SW USA_SEARAD_NW STORM_SPEED STORM_DIR
1970007S17041 1970 4 SI MM ELIANE 1970-01-07 00:00:00 TS -16.7000 40.8000 main 102 102 O________OO___ jtwc_sh SH081970 -16.7000 40.8000 -1 -16.7000 40.8000 TC 25 -16.7000 40.8000 7 4 0
1970007S17041 1970 4 SI MM ELIANE 1970-01-07 03:00:00 TS -16.9056 40.7996 main 115 115 P________PP___ SH081970 -16.8975 40.7900 -1 -16.8975 40.7900 TC 25 -16.9219 40.8187 7 4 155
1970007S17041 1970 4 SI MM ELIANE 1970-01-07 06:00:00 TS -17.0914 40.9927 reunion main 144 144 O____O___OP_O_ jtwc_sh SH081970 -17.1000 40.8000 -1 -17.0000 41.8000 2 9.90000 -17.1000 40.8000 TC 25 -17.1350 40.8400 7 -17.0000 41.8000 TC 30 4 138
1970007S17041 1970 4 SI MM ELIANE 1970-01-07 09:00:00 TS -17.2370 41.1140 main 159 159 P____P___PP_P_ SH081970 -17.3075 40.8425 -1 -17.0025 41.9050 2 -17.3075 40.8425 TC 25 -17.3306 40.8662 7 -17.0025 41.9050 TC 30 4 133
1970007S17041 1970 4 SI MM ELIANE 1970-01-07 12:00:00 TS -17.3333 41.2667 reunion main 183 183 O____O___OO_O_ jtwc_sh SH081970 -17.5000 40.9000 -1 -17.0000 42.0000 99 9.90000 -17.5000 40.9000 TC 25 -17.5000 40.9000 7 -17.0000 42.0000 TC 30 3 119
1970007S17041 1970 4 SI MM ELIANE 1970-01-07 15:00:00 TS -17.3907 41.4026 main 197 197 P____P___PP_P_ SH081970 -17.6650 40.9500 -1 -16.9925 42.0850 99 -17.6650 40.9500 TC 25 -17.6384 40.9428 7 -16.9925 42.0850 TC 30 2 125
1970007S17041 1970 4 SI MM ELIANE 1970-01-07 18:00:00 TS -17.4715 41.4785 reunion main 212 212 O____O___OP_O_ jtwc_sh SH081970 -17.8000 41.0000 -1 -17.0000 42.2000 99 9.90000 -17.8000 41.0000 TC 25 -17.7575 40.9925 7 -17.0000 42.2000 TC 30 2 132
1970007S17041 1970 4 SI MM ELIANE 1970-01-07 21:00:00 TS -17.5486 41.5892 main 221 221 P____P___PP_P_ SH081970 -17.8925 41.0500 -1 -17.0426 42.4000 99 -17.8925 41.0500 TC 25 -17.8728 41.0460 7 -17.0426 42.4000 TC 30 3 129
1970007S17041 1970 4 SI MM ELIANE 1970-01-08 00:00:00 TS -17.6400 41.7000 reunion main 233 223 O____O___OO_O_ jtwc_sh SH081970 -18.0000 41.1000 -1 -17.1000 42.6000 99 9.90000 -18.0000 41.1000 TC 25 -18.0000 41.1000 7 -17.1000 42.6000 TC 30 3 137
1970007S17041 1970 4 SI MM ELIANE 1970-01-08 03:00:00 TS -17.7565 41.7918 main 225 225 P____P___PP_P_ SH081970 -18.1925 41.1500 -1 -17.1125 42.7524 99 -18.1925 41.1500 TC 25 -18.1728 41.1540 7 -17.1125 42.7524 TC 32 3 153
1970007S17041 1970 4 SI MM ELIANE 1970-01-08 06:00:00 TS -17.9115 41.8415 reunion main 226 226 O____O___OP_O_ jtwc_sh SH081970 -18.4000 41.2000 -1 -17.2000 42.8000 3 9.90000 -18.4000 41.2000 TC 25 -18.3575 41.2074 7 -17.2000 42.8000 TC 35 4 174
1970007S17041 1970 4 SI MM ELIANE 1970-01-08 09:00:00 TS -18.1277 41.8295 main 232 232 P____P___PP_P_ SH081970 -18.5650 41.2575 -1 -17.4850 42.6877 3 -18.5650 41.2575 TC 25 -18.5384 41.2571 7 -17.4850 42.6877 TC 35 4 187
1970007S17041 1970 4 SI MM ELIANE 1970-01-08 12:00:00 TS -18.3400 41.7800 reunion main 232 232 O____O___OO_O_ jtwc_sh SH081970 -18.7000 41.3000 -1 -17.8000 42.5000 99 9.90000 -18.7000 41.3000 TC 25 -18.7000 41.3000 7 -17.8000 42.5000 TC 35 4 197
1970007S17041 1970 4 SI MM ELIANE 1970-01-08 15:00:00 TS -18.4717 41.7180 main 242 242 P____P___PP_P_ SH081970 -18.8075 41.3000 -1 -17.9650 42.3349 99 -18.8075 41.3000 TC 25 -18.8134 41.3201 7 -17.9650 42.3349 TC 32 3 203
1970007S17041 1970 4 SI MM ELIANE 1970-01-08 18:00:00 TS -18.5815 41.6670 reunion main 243 243 O____O___OP_O_ jtwc_sh SH081970 -18.9000 41.3000 -1 -18.1000 42.2000 99 9.90000 -18.9000 41.3000 TC 25 -18.9075 41.3352 7 -18.1000 42.2000 TC 30 2 192
1970007S17041 1970 4 SI MM ELIANE 1970-01-08 21:00:00 TS -18.7105 41.6595 main 244 244 P____P___PP_P_ SH081970 -18.9925 41.3350 -1 -18.2850 42.1349 99 -18.9925 41.3350 TC 25 -18.9978 41.3577 7 -18.2850 42.1349 TC 30 3 175
1970007S17041 1970 4 SI MM ELIANE 1970-01-09 00:00:00 TS -18.8600 41.6800 reunion main 248 248 O____O___OO_O_ jtwc_sh SH081970 -19.1000 41.4000 -1 -18.5000 42.1000 99 9.90000 -19.1000 41.4000 TC 25 -19.1000 41.4000 7 -18.5000 42.1000 TC 30 3 172
1970007S17041 1970 4 SI MM ELIANE 1970-01-09 03:00:00 TS -19.0338 41.7015 main 251 248 P____P___PP_P_ SH081970 -19.2425 41.4925 -1 -18.7200 42.0202 99 -19.2425 41.4925 TC 25 -19.2438 41.4824 7 -18.7200 42.0202 TC 30 4 170
1970007S17041 1970 4 SI MM ELIANE 1970-01-09 06:00:00 TS -19.2400 41.7570 reunion main 248 245 O____O___OP_O_ jtwc_sh SH081970 -19.4000 41.6000 -1 -19.0000 42.0000 2 9.90000 -19.4000 41.6000 TC 25 -19.4001 41.5848 7 -19.0000 42.0000 TC 30 5 161
1970007S17041 1970 4 SI MM ELIANE 1970-01-09 09:00:00 TS -19.5033 41.8669 main 245 233 P____P___PP_P_ SH081970 -19.5575 41.7075 -1 -19.4225 42.1122 2 -19.5575 41.7075 TC 25 -19.5563 41.6949 7 -19.4225 42.1122 TC 30 6 155
1970007S17041 1970 4 SI MM ELIANE 1970-01-09 12:00:00 TS -19.7400 42.0000 reunion main 233 212 O____O___OO_O_ jtwc_sh SH081970 -19.7000 41.8000 -1 -19.8000 42.3000 99 9.90000 -19.7000 41.8000 TC 25 -19.7000 41.8000 7 -19.8000 42.3000 TC 30 4 146
1970007S17041 1970 4 SI MM ELIANE 1970-01-09 15:00:00 TS -19.8584 42.1165 main 212 203 P____P___PP_P_ SH081970 -19.8075 41.8500 -1 -19.9375 42.5002 99 -19.8075 41.8500 TC 25 -19.8022 41.8823 7 -19.9375 42.5002 TC 30 3 133
1970007S17041 1970 4 SI MM ELIANE 1970-01-09 18:00:00 TS -19.9385 42.2315 reunion main 203 189 O____O___OP_O_ jtwc_sh SH081970 -19.9000 41.9000 -1 -20.0000 42.7000 99 9.90000 -19.9000 41.9000 TC 25 -19.8925 41.9577 7 -20.0000 42.7000 TC 30 3 130
1970007S17041 1970 4 SI MM ELIANE 1970-01-09 21:00:00 TS -20.0453 42.3519 main 180 160 P____P___PP_P_ SH081970 -19.9925 42.0000 -1 -20.1275 42.8650 99 -19.9925 42.0000 TC 25 -19.9865 42.0292 7 -20.1275 42.8650 TC 30 3 139
1970007S17041 1970 4 SI MM ELIANE 1970-01-10 00:00:00 TS -20.1800 42.4600 reunion main 160 156 O____O___OO_O_ jtwc_sh SH081970 -20.1000 42.1000 -1 -20.3000 43.0000 99 9.90000 -20.1000 42.1000 TC 25 -20.1000 42.1000 7 -20.3000 43.0000 TC 30 4 152
1970007S17041 1970 4 SI MM ELIANE 1970-01-10 03:00:00 TS -20.3538 42.5256 main 152 122 P____P___PP_P_ SH081970 -20.2350 42.1501 -1 -20.5274 43.0777 99 -20.2350 42.1501 TC 25 -20.2444 42.1727 7 -20.5274 43.0777 TC 30 5 153
1970007S17041 1970 4 SI MM ELIANE 1970-01-10 06:00:00 TS -20.5909 42.6789 reunion main 122 76 O____O___OP_O_ jtwc_sh SH081970 -20.4000 42.2000 -1 -20.8000 43.2000 2 9.90000 -20.4000 42.2000 TC 25 -20.4150 42.2473 7 -20.8000 43.2000 TC 30 7 141
1970007S17041 1970 4 SI MM ELIANE 1970-01-10 09:00:00 TS -20.8799 42.9853 main 76 24 P____P___PP_P_ SH081970 -20.5925 42.2874 -1 -21.0927 43.4997 2 -20.5925 42.2874 TC 25 -20.6032 42.3232 7 -21.0927 43.4997 TC 30 9 133
1970007S17041 1970 4 SI MM ELIANE 1970-01-10 12:00:00 TS -21.2364 43.4182 reunion main 24 0 O____O___OO_O_ jtwc_sh SH081970 -20.8000 42.4000 -1 -21.4000 43.8000 99 9.90000 -20.8000 42.4000 TC 25 -20.8000 42.4000 7 -21.4000 43.8000 TC 30 12 134
1970007S17041 1970 4 SI MM ELIANE 1970-01-10 15:00:00 TS -21.6923 43.8930 main 0 0 _____P______P_ SH081970 -1 -21.6923 43.8930 99 TC 7 -21.6923 43.8930 TC 30 9 145
1970007S17041 1970 4 SI MM ELIANE 1970-01-10 18:00:00 TS -22.0000 44.0000 reunion main 0 0 _____O______O_ -1 -22.0000 44.0000 99 9.90000 7 -22.0000 44.0000 TC 30 8 147
1970007S17041 1970 4 SI MM ELIANE 1970-01-10 21:00:00 TS -22.3428 44.3421 main 0 0 _____P______P_ -1 -22.3428 44.3421 99 7 -22.3428 44.3421 TC 27 10 137
1970007S17041 1970 4 SI MM ELIANE 1970-01-11 00:00:00 TS -22.7000 44.7000 reunion main 0 0 _____O______O_ -1 -22.7000 44.7000 99 9.90000 -22.7000 44.7000 TC 25 9 144
1970007S17041 1970 4 SI MM ELIANE 1970-01-11 03:00:00 TS -23.0523 44.9027 main 0 0 _____P______P_ -1 -23.0523 44.9027 99 -23.0523 44.9027 TC 25 8 158
1970007S17041 1970 4 SI MM ELIANE 1970-01-11 06:00:00 TS -23.4000 45.0000 reunion main 0 _____O______O_ -1 -23.4000 45.0000 6 9.90000 -23.4000 45.0000 TC 25 7 166

IBTrACS Databaseについて

本データベースは、米国NOAAが公開する1842年以降の世界の熱帯低気圧のベストトラックデータアーカイブInternational Best Track Archive for Climate Stewardship (IBTrACS)を、ウェブで閲覧しやすい形式に変換したものです。

最終更新日:2021-10-08